createdAt,value
2019-05-20T00:02:02.465Z,2.55
2019-05-20T00:04:30.773Z,2.52
2019-05-20T00:06:59.071Z,2.70
2019-05-20T00:09:27.368Z,2.42
2019-05-20T00:11:55.484Z,2.50
2019-05-20T00:14:23.771Z,2.92
2019-05-20T00:16:51.883Z,2.75
2019-05-20T00:19:20.091Z,2.75
2019-05-20T00:21:48.224Z,2.90
2019-05-20T00:24:16.299Z,3.50
2019-05-20T00:26:44.424Z,3.30
2019-05-20T00:29:12.635Z,3.50
2019-05-20T00:31:40.805Z,2.65
2019-05-20T00:34:09.105Z,3.35
2019-05-20T00:36:37.282Z,4.17
2019-05-20T00:39:20.039Z,3.17
2019-05-20T00:41:48.279Z,3.33
2019-05-20T00:44:16.511Z,3.12
2019-05-20T00:46:44.705Z,2.77
2019-05-20T00:49:12.878Z,2.98
2019-05-20T00:51:41.032Z,3.08
2019-05-20T00:54:09.297Z,3.27
2019-05-20T00:56:37.671Z,3.15
2019-05-20T00:59:06.193Z,3.52
2019-05-20T01:01:34.448Z,3.10
2019-05-20T01:04:02.600Z,3.15
2019-05-20T01:06:30.683Z,3.37
2019-05-20T01:08:58.870Z,3.17
2019-05-20T01:11:26.981Z,3.02
2019-05-20T01:13:55.138Z,3.20
2019-05-20T01:16:23.286Z,3.40
2019-05-20T01:18:51.480Z,3.15
2019-05-20T01:21:19.591Z,3.55
2019-05-20T01:23:47.717Z,3.35
2019-05-20T01:26:15.873Z,3.52
2019-05-20T01:28:44.023Z,4.08
2019-05-20T01:31:12.179Z,3.90
2019-05-20T01:33:40.287Z,3.40
2019-05-20T01:36:08.470Z,3.37
2019-05-20T01:38:36.611Z,3.67
2019-05-20T01:41:04.895Z,3.40
2019-05-20T01:43:33.010Z,4.08
2019-05-20T01:46:01.783Z,3.17
2019-05-20T01:48:29.855Z,3.20
2019-05-20T01:50:58.181Z,3.08
2019-05-20T01:53:26.338Z,4.15
2019-05-20T01:55:54.505Z,3.50
2019-05-20T01:58:22.645Z,4.00
2019-05-20T02:00:50.832Z,3.90
2019-05-20T02:03:31.106Z,2.75
2019-05-20T02:05:48.946Z,3.98
2019-05-20T02:08:17.136Z,2.85
2019-05-20T02:10:45.233Z,3.52
2019-05-20T02:13:13.356Z,4.10
2019-05-20T02:15:47.268Z,3.75
2019-05-20T02:18:15.364Z,4.25
2019-05-20T02:20:43.498Z,4.28
2019-05-20T02:23:15.599Z,4.37
2019-05-20T02:26:03.893Z,4.22
2019-05-20T02:28:32.072Z,3.65
2019-05-20T02:31:00.183Z,3.08
2019-05-20T02:33:28.317Z,3.60
2019-05-20T02:35:56.419Z,4.25
2019-05-20T02:38:24.498Z,3.33
2019-05-20T02:40:52.693Z,4.12
2019-05-20T02:43:20.856Z,4.37
2019-05-20T02:45:49.045Z,4.70
2019-05-20T02:48:17.230Z,3.83
2019-05-20T02:50:45.356Z,3.72
2019-05-20T02:53:13.440Z,4.25
2019-05-20T02:55:41.548Z,5.03
2019-05-20T02:58:09.668Z,4.87
2019-05-20T03:00:37.778Z,6.67
2019-05-20T03:03:05.909Z,6.17
2019-05-20T03:05:33.997Z,5.60
2019-05-20T03:08:02.358Z,6.25
2019-05-20T03:10:30.467Z,5.92
2019-05-20T03:12:58.587Z,6.30
2019-05-20T03:15:26.737Z,5.15
2019-05-20T03:17:54.875Z,5.72
2019-05-20T03:20:23.063Z,4.37
2019-05-20T03:22:51.173Z,5.47
2019-05-20T03:25:19.388Z,6.05
2019-05-20T03:27:47.620Z,5.67
2019-05-20T03:30:15.943Z,7.12
2019-05-20T03:32:44.111Z,7.28
2019-05-20T03:35:12.561Z,6.35
2019-05-20T03:37:40.761Z,6.58
2019-05-20T03:40:09.117Z,5.65
2019-05-20T03:42:37.344Z,5.17
2019-05-20T03:45:05.811Z,4.65
2019-05-20T03:47:33.945Z,5.55
2019-05-20T03:50:02.207Z,5.05
2019-05-20T03:52:30.403Z,4.90
2019-05-20T03:54:58.588Z,4.45
2019-05-20T03:57:26.774Z,6.17
2019-05-20T03:59:54.965Z,5.05
2019-05-20T04:02:23.096Z,5.92
2019-05-20T04:05:01.496Z,5.17
2019-05-20T04:07:21.159Z,4.78
2019-05-20T04:09:49.292Z,5.35
2019-05-20T04:12:17.583Z,5.47
2019-05-20T04:14:45.764Z,5.30
2019-05-20T04:17:13.912Z,5.50
2019-05-20T04:19:42.048Z,4.95
2019-05-20T04:22:10.175Z,4.87
2019-05-20T04:24:38.452Z,5.65
2019-05-20T04:27:06.629Z,5.62
2019-05-20T04:29:34.802Z,6.10
2019-05-20T04:32:02.950Z,7.62
2019-05-20T04:34:31.132Z,7.50
2019-05-20T04:36:59.300Z,9.18
2019-05-20T04:39:27.469Z,9.58
2019-05-20T04:41:55.659Z,8.10
2019-05-20T04:44:23.873Z,7.20
2019-05-20T04:46:52.004Z,7.33
2019-05-20T04:49:20.278Z,7.70
2019-05-20T04:51:48.471Z,7.75
2019-05-20T04:54:16.744Z,7.17
2019-05-20T04:56:44.957Z,7.30
2019-05-20T04:59:14.938Z,7.75
2019-05-20T05:01:43.393Z,6.95
2019-05-20T05:04:11.591Z,6.10
2019-05-20T05:06:39.926Z,7.55
2019-05-20T05:09:08.483Z,6.28
2019-05-20T05:11:36.893Z,7.33
2019-05-20T05:14:05.037Z,7.42
2019-05-20T05:16:33.181Z,7.87
2019-05-20T05:19:01.427Z,7.60
2019-05-20T05:21:29.621Z,8.50
2019-05-20T05:23:59.459Z,8.53
2019-05-20T05:26:27.793Z,9.00
2019-05-20T05:28:55.953Z,9.55
2019-05-20T05:31:24.197Z,9.55
2019-05-20T05:33:54.317Z,10.25
2019-05-20T05:36:22.086Z,9.33
2019-05-20T05:38:50.279Z,9.85
2019-05-20T05:41:18.495Z,9.68
2019-05-20T05:43:46.666Z,10.18
2019-05-20T05:46:14.827Z,9.10
2019-05-20T05:48:43.002Z,10.00
2019-05-20T05:51:11.212Z,9.05
2019-05-20T05:53:39.326Z,9.15
2019-05-20T05:56:07.454Z,9.38
2019-05-20T05:58:35.624Z,8.83
2019-05-20T06:01:03.763Z,10.20
2019-05-20T06:03:31.974Z,9.45
2019-05-20T06:06:11.208Z,9.63
2019-05-20T06:08:30.133Z,9.18
2019-05-20T06:10:58.282Z,9.05
2019-05-20T06:13:26.486Z,10.93
2019-05-20T06:15:54.843Z,11.45
2019-05-20T06:18:22.992Z,11.45
2019-05-20T06:20:51.204Z,12.90
2019-05-20T06:23:19.468Z,12.13
2019-05-20T06:25:47.721Z,12.23
2019-05-20T06:28:15.898Z,12.75
2019-05-20T06:30:46.420Z,12.65
2019-05-20T06:33:14.718Z,12.78
2019-05-20T06:35:42.984Z,14.15
2019-05-20T06:38:19.519Z,12.88
2019-05-20T06:40:47.718Z,13.72
2019-05-20T06:43:15.920Z,13.25
2019-05-20T06:45:44.150Z,12.40
2019-05-20T06:48:12.395Z,13.05
2019-05-20T06:50:40.524Z,16.27
2019-05-20T06:53:08.728Z,13.28
2019-05-20T06:55:36.879Z,10.32
2019-05-20T06:58:05.030Z,12.03
2019-05-20T07:00:35.412Z,12.80
2019-05-20T07:03:03.680Z,17.20
2019-05-20T07:05:31.815Z,17.05
2019-05-20T07:08:01.450Z,16.82
2019-05-20T07:10:29.821Z,16.95
2019-05-20T07:12:58.272Z,18.73
2019-05-20T07:15:26.433Z,17.80
2019-05-20T07:17:54.595Z,19.17
2019-05-20T07:20:22.753Z,15.98
2019-05-20T07:22:55.714Z,16.60
2019-05-20T07:25:21.084Z,15.13
2019-05-20T07:27:49.198Z,14.98
2019-05-20T07:30:17.375Z,18.40
2019-05-20T07:32:45.507Z,17.60
2019-05-20T07:35:28.956Z,18.85
2019-05-20T07:37:43.779Z,20.27
2019-05-20T07:40:13.528Z,18.45
2019-05-20T07:42:41.709Z,18.42
2019-05-20T07:45:10.335Z,15.00
2019-05-20T07:47:39.018Z,18.75
2019-05-20T07:50:09.026Z,19.17
2019-05-20T07:55:05.230Z,9.85
2019-05-20T07:57:36.372Z,16.52
2019-05-20T08:00:05.161Z,12.70
2019-05-20T08:02:33.554Z,16.35
2019-05-20T08:05:01.835Z,14.45
2019-05-20T08:07:50.701Z,16.48
2019-05-20T08:10:00.320Z,17.20
2019-05-20T08:12:28.603Z,16.73
2019-05-20T08:14:57.004Z,12.50
2019-05-20T08:17:25.171Z,17.92
2019-05-20T08:19:53.358Z,17.98
2019-05-20T08:22:21.555Z,17.92
2019-05-20T08:24:49.755Z,13.03
2019-05-20T08:27:17.941Z,15.35
2019-05-20T08:29:46.207Z,17.65
2019-05-20T08:32:14.529Z,14.15
2019-05-20T08:34:42.718Z,18.75
2019-05-20T08:37:10.893Z,16.27
2019-05-20T08:39:39.123Z,15.10
2019-05-20T08:42:07.334Z,15.85
2019-05-20T08:44:35.720Z,18.48
2019-05-20T08:47:04.129Z,17.37
2019-05-20T08:49:32.464Z,19.27
2019-05-20T08:52:00.972Z,17.12
2019-05-20T08:54:29.217Z,18.30
2019-05-20T08:56:57.509Z,17.95
2019-05-20T08:59:25.757Z,14.58
2019-05-20T09:01:53.907Z,16.85
2019-05-20T09:04:22.182Z,17.20
2019-05-20T09:06:50.405Z,14.28
2019-05-20T09:09:18.637Z,17.92
2019-05-20T09:11:47.862Z,16.40
2019-05-20T09:14:16.306Z,17.25
2019-05-20T09:16:44.454Z,16.65
2019-05-20T09:19:12.629Z,14.63
2019-05-20T09:21:40.937Z,17.90
2019-05-20T09:24:09.150Z,14.53
2019-05-20T09:26:37.697Z,18.37
2019-05-20T09:29:05.964Z,18.62
2019-05-20T09:31:34.348Z,18.70
2019-05-20T09:34:02.602Z,19.15
2019-05-20T09:36:30.809Z,21.12
2019-05-20T09:38:59.125Z,22.27
2019-05-20T09:41:27.373Z,20.57
2019-05-20T09:43:55.598Z,19.42
2019-05-20T09:46:23.859Z,21.23
2019-05-20T09:48:52.089Z,16.17
2019-05-20T09:51:20.318Z,19.12
2019-05-20T09:53:48.558Z,20.00
2019-05-20T09:56:16.834Z,15.00
2019-05-20T09:58:45.054Z,18.30
2019-05-20T10:01:13.243Z,15.83
2019-05-20T10:03:41.323Z,17.92
2019-05-20T10:06:09.676Z,18.20
2019-05-20T10:08:44.447Z,19.25
2019-05-20T10:11:07.801Z,18.02
2019-05-20T10:13:36.054Z,18.25
2019-05-20T10:16:04.327Z,18.65
2019-05-20T10:18:37.203Z,16.95
2019-05-20T10:23:29.519Z,14.90
2019-05-20T10:25:57.639Z,12.73
2019-05-20T10:28:25.859Z,11.35
2019-05-20T10:30:54.029Z,16.15
2019-05-20T10:33:22.276Z,16.15
2019-05-20T10:35:50.380Z,14.50
2019-05-20T10:38:18.553Z,15.65
2019-05-20T10:40:46.765Z,14.60
2019-05-20T10:43:14.965Z,16.32
2019-05-20T10:45:43.154Z,14.40
2019-05-20T10:48:11.250Z,16.15
2019-05-20T10:50:39.420Z,15.65
2019-05-20T10:53:07.619Z,17.98
2019-05-20T10:55:35.836Z,17.05
2019-05-20T10:58:04.008Z,15.75
2019-05-20T11:00:32.242Z,16.17
2019-05-20T11:03:00.360Z,17.95
2019-05-20T11:05:28.568Z,15.72
2019-05-20T11:07:56.971Z,15.68
2019-05-20T11:10:25.352Z,12.25
2019-05-20T11:12:53.521Z,16.67
2019-05-20T11:15:21.856Z,16.30
2019-05-20T11:17:50.047Z,14.38
2019-05-20T11:20:18.636Z,16.37
2019-05-20T11:22:48.513Z,17.50
2019-05-20T11:25:17.298Z,14.95
2019-05-20T11:27:45.518Z,16.00
2019-05-20T11:30:14.202Z,14.15
2019-05-20T11:32:42.427Z,12.43
2019-05-20T11:35:11.222Z,12.88
2019-05-20T11:37:39.439Z,13.75
2019-05-20T11:40:09.055Z,13.43
2019-05-20T11:42:37.675Z,14.93
2019-05-20T11:45:06.768Z,11.03
2019-05-20T11:47:35.028Z,14.07
2019-05-20T11:50:03.465Z,11.15
2019-05-20T11:52:31.601Z,11.30
2019-05-20T11:54:59.751Z,13.95
2019-05-20T11:57:27.962Z,10.70
2019-05-20T11:59:56.219Z,8.50
2019-05-20T12:02:24.418Z,8.90
2019-05-20T12:04:52.658Z,12.03
2019-05-20T12:07:21.003Z,13.60
2019-05-20T12:09:50.268Z,13.72
2019-05-20T12:14:45.965Z,14.13
2019-05-20T12:17:14.351Z,11.83
2019-05-20T12:19:42.581Z,12.37
2019-05-20T12:22:10.876Z,17.60
2019-05-20T12:24:39.082Z,17.95
2019-05-20T12:27:07.283Z,16.40
2019-05-20T12:29:35.439Z,14.40
2019-05-20T12:32:03.854Z,11.80
2019-05-20T12:34:31.952Z,14.20
2019-05-20T12:37:00.217Z,15.93
2019-05-20T12:39:28.497Z,16.07
2019-05-20T12:41:56.725Z,16.15
2019-05-20T12:44:24.929Z,15.03
2019-05-20T12:46:53.298Z,15.00
2019-05-20T12:49:21.602Z,16.75
2019-05-20T12:51:49.767Z,13.28
2019-05-20T12:54:17.876Z,17.23
2019-05-20T12:56:46.024Z,16.65
2019-05-20T12:59:14.287Z,15.85
2019-05-20T13:01:42.410Z,18.05
2019-05-20T13:04:10.840Z,12.73
2019-05-20T13:06:38.987Z,12.70
2019-05-20T13:09:07.871Z,12.53
2019-05-20T13:11:36.223Z,11.18
2019-05-20T13:14:04.481Z,13.88
2019-05-20T13:16:32.626Z,15.68
2019-05-20T13:19:00.778Z,13.20
2019-05-20T13:21:29.033Z,14.78
2019-05-20T13:23:57.957Z,15.40
2019-05-20T13:26:26.298Z,17.10
2019-05-20T13:28:58.938Z,12.95
2019-05-20T13:31:24.411Z,15.88
2019-05-20T13:33:52.546Z,13.90
2019-05-20T13:36:20.726Z,15.50
2019-05-20T13:38:48.986Z,14.45
2019-05-20T13:41:17.188Z,14.85
2019-05-20T13:43:45.315Z,15.10
2019-05-20T13:46:13.533Z,13.75
2019-05-20T13:48:41.676Z,15.80
2019-05-20T13:51:09.956Z,16.15
2019-05-20T13:53:38.278Z,17.50
2019-05-20T13:56:06.516Z,17.45
2019-05-20T13:58:34.798Z,16.65
2019-05-20T14:01:03.101Z,18.70
2019-05-20T14:03:31.348Z,17.45
2019-05-20T14:05:59.523Z,14.18
2019-05-20T14:08:27.729Z,15.70
2019-05-20T14:11:04.271Z,17.62
2019-05-20T14:13:25.773Z,16.85
2019-05-20T14:15:53.956Z,16.80
2019-05-20T14:18:22.158Z,13.60
2019-05-20T14:20:50.328Z,13.45
2019-05-20T14:23:18.556Z,16.62
2019-05-20T14:25:46.902Z,17.95
2019-05-20T14:28:15.058Z,16.75
2019-05-20T14:30:43.226Z,17.32
2019-05-20T14:33:11.432Z,18.12
2019-05-20T14:35:39.594Z,19.40
2019-05-20T14:38:07.707Z,17.37
2019-05-20T14:40:36.029Z,13.58
2019-05-20T14:43:04.211Z,17.65
2019-05-20T14:45:32.442Z,18.10
2019-05-20T14:48:00.921Z,18.05
2019-05-20T14:50:29.068Z,18.95
2019-05-20T14:52:57.287Z,14.45
2019-05-20T14:55:25.534Z,19.62
2019-05-20T14:57:53.868Z,19.62
2019-05-20T15:00:22.135Z,19.23
2019-05-20T15:02:50.357Z,21.52
2019-05-20T15:05:18.542Z,20.88
2019-05-20T15:07:47.209Z,16.67
2019-05-20T15:10:17.231Z,19.65
2019-05-20T15:12:45.429Z,13.20
2019-05-20T15:15:14.349Z,9.33
2019-05-20T15:17:42.529Z,2.95
2019-05-20T15:20:11.162Z,3.10
2019-05-20T15:22:39.394Z,3.40
2019-05-20T15:25:07.895Z,3.27
2019-05-20T15:27:36.105Z,2.17
2019-05-20T15:30:04.503Z,2.27
2019-05-20T15:32:32.694Z,2.98
2019-05-20T15:35:00.932Z,2.83
2019-05-20T15:37:29.332Z,2.22
2019-05-20T15:39:57.481Z,2.50
2019-05-20T15:42:25.745Z,2.62
2019-05-20T15:44:53.993Z,2.22
2019-05-20T15:47:22.227Z,2.10
2019-05-20T15:49:50.534Z,1.80
2019-05-20T15:52:18.732Z,2.02
2019-05-20T15:54:47.069Z,2.20
2019-05-20T15:57:15.298Z,1.95
2019-05-20T15:59:46.420Z,2.35
2019-05-20T16:04:40.607Z,3.58
2019-05-20T16:07:08.732Z,3.42
2019-05-20T16:09:37.132Z,3.47
2019-05-20T16:12:05.363Z,3.65
2019-05-20T16:14:33.515Z,3.65
2019-05-20T16:17:01.760Z,3.72
2019-05-20T16:19:29.930Z,4.28
2019-05-20T16:21:58.142Z,3.45
2019-05-20T16:24:26.469Z,3.55
2019-05-20T16:26:54.633Z,4.08
2019-05-20T16:29:22.915Z,3.95
2019-05-20T16:31:51.070Z,3.77
2019-05-20T16:34:19.338Z,3.95
2019-05-20T16:36:47.617Z,4.10
2019-05-20T16:39:15.817Z,4.05
2019-05-20T16:41:44.028Z,3.08
2019-05-20T16:44:12.328Z,3.10
2019-05-20T16:46:40.627Z,3.20
2019-05-20T16:49:08.812Z,4.22
2019-05-20T16:51:37.289Z,3.70
2019-05-20T16:54:05.703Z,3.47
2019-05-20T16:56:33.930Z,3.35
2019-05-20T16:59:02.050Z,2.60
2019-05-20T17:01:30.244Z,2.85
2019-05-20T17:03:58.470Z,2.85
2019-05-20T17:06:27.641Z,3.40
2019-05-20T17:08:55.797Z,3.53
2019-05-20T17:11:24.086Z,3.75
2019-05-20T17:13:52.347Z,3.15
2019-05-20T17:16:20.744Z,3.75
2019-05-20T17:18:49.097Z,3.33
2019-05-20T17:21:17.305Z,2.70
2019-05-20T17:23:45.486Z,2.98
2019-05-20T17:26:13.641Z,2.98
2019-05-20T17:28:43.354Z,2.70
2019-05-20T17:31:11.564Z,3.10
2019-05-20T17:33:39.911Z,4.15
2019-05-20T17:36:08.096Z,3.95
2019-05-20T17:38:36.409Z,3.83
2019-05-20T17:41:04.586Z,4.33
2019-05-20T17:43:32.852Z,3.60
2019-05-20T17:46:01.033Z,4.15
2019-05-20T17:48:29.157Z,4.05
2019-05-20T17:50:57.310Z,3.95
2019-05-20T17:53:25.556Z,5.22
2019-05-20T17:55:53.801Z,4.17
2019-05-20T17:58:21.953Z,4.87
2019-05-20T18:00:50.136Z,4.85
2019-05-20T18:03:18.323Z,6.20
2019-05-20T18:05:46.483Z,5.45
2019-05-20T18:08:14.816Z,5.12
2019-05-20T18:10:42.925Z,4.22
2019-05-20T18:13:11.310Z,5.53
2019-05-20T18:15:39.626Z,6.05
2019-05-20T18:18:08.340Z,9.18
2019-05-20T18:20:36.634Z,8.95
2019-05-20T18:23:04.875Z,10.20
2019-05-20T18:25:34.340Z,8.75
2019-05-20T18:28:02.645Z,8.40
2019-05-20T18:30:30.884Z,13.40
2019-05-20T18:32:59.096Z,11.30
2019-05-20T18:35:27.325Z,12.63
2019-05-20T18:37:55.692Z,13.78
2019-05-20T18:40:23.862Z,11.65
2019-05-20T18:42:52.059Z,10.68
2019-05-20T18:45:20.348Z,8.45
2019-05-20T18:47:48.530Z,4.35
2019-05-20T18:50:16.854Z,9.20
2019-05-20T18:52:45.056Z,5.78
2019-05-20T18:55:13.266Z,12.73
2019-05-20T18:57:41.469Z,15.93
2019-05-20T19:00:11.348Z,16.82
2019-05-20T19:02:39.738Z,15.72
2019-05-20T19:05:08.914Z,18.55
2019-05-20T19:07:37.039Z,19.50
2019-05-20T19:10:06.000Z,20.85
2019-05-20T19:12:34.263Z,18.90
2019-05-20T19:15:02.478Z,17.95
2019-05-20T19:17:30.939Z,15.55
2019-05-20T19:19:59.378Z,15.85
2019-05-20T19:22:27.547Z,7.72
2019-05-20T19:24:55.769Z,10.35
2019-05-20T19:27:24.105Z,10.98
2019-05-20T19:29:52.321Z,9.15
2019-05-20T19:32:22.229Z,8.40
2019-05-20T19:34:50.422Z,7.87
2019-05-20T19:37:18.880Z,10.28
2019-05-20T19:39:47.057Z,11.15
2019-05-20T19:42:15.272Z,11.20
2019-05-20T19:44:43.512Z,9.50
2019-05-20T19:47:11.746Z,10.82
2019-05-20T19:49:42.429Z,10.30
2019-05-20T19:52:10.099Z,7.67
2019-05-20T19:54:38.362Z,9.88
2019-05-20T19:57:06.855Z,10.95
2019-05-20T19:59:35.392Z,12.37
2019-05-20T20:02:16.470Z,10.78
2019-05-20T20:04:34.056Z,8.53
2019-05-20T20:07:02.265Z,10.10
2019-05-20T20:09:30.674Z,9.43
2019-05-20T20:11:58.809Z,9.25
2019-05-20T20:14:27.060Z,9.53
2019-05-20T20:16:55.273Z,5.87
2019-05-20T20:19:23.419Z,9.30
2019-05-20T20:21:51.573Z,5.33
2019-05-20T20:24:19.767Z,10.13
2019-05-20T20:26:48.009Z,7.67
2019-05-20T20:29:16.251Z,14.40
2019-05-20T20:31:44.475Z,10.05
2019-05-20T20:34:12.656Z,10.38
2019-05-20T20:36:40.893Z,9.55
2019-05-20T20:39:09.184Z,10.53
2019-05-20T20:41:37.352Z,9.68
2019-05-20T20:44:05.666Z,10.23
2019-05-20T20:46:33.833Z,6.72
2019-05-20T20:49:02.033Z,11.35
2019-05-20T20:51:30.231Z,12.53
2019-05-20T20:53:58.420Z,13.35
2019-05-20T20:56:26.697Z,14.03
2019-05-20T20:58:54.879Z,13.58
2019-05-20T21:01:23.040Z,11.97
2019-05-20T21:03:51.269Z,4.35
2019-05-20T21:06:19.497Z,9.50
2019-05-20T21:08:47.686Z,6.22
2019-05-20T21:11:15.877Z,10.40
2019-05-20T21:13:44.021Z,11.28
2019-05-20T21:16:12.253Z,10.50
2019-05-20T21:18:40.565Z,10.80
2019-05-20T21:21:09.069Z,9.53
2019-05-20T21:23:38.120Z,10.50
2019-05-20T21:26:06.527Z,12.73
2019-05-20T21:28:34.722Z,12.70
2019-05-20T21:31:02.913Z,12.80
2019-05-20T21:33:31.051Z,12.68
2019-05-20T21:35:59.299Z,16.95
2019-05-20T21:38:27.547Z,17.75
2019-05-20T21:40:55.813Z,19.20
2019-05-20T21:43:24.044Z,17.80
2019-05-20T21:45:52.275Z,19.07
2019-05-20T21:48:20.434Z,19.17
2019-05-20T21:50:48.611Z,18.00
2019-05-20T21:53:16.926Z,19.90
2019-05-20T21:55:45.222Z,20.52
2019-05-20T21:58:14.266Z,18.95
2019-05-20T22:00:48.414Z,21.62
2019-05-20T22:03:24.123Z,23.73
2019-05-20T22:05:46.592Z,23.07
2019-05-20T22:08:14.997Z,22.50
2019-05-20T22:10:43.352Z,23.15
2019-05-20T22:13:11.536Z,24.92
2019-05-20T22:15:39.720Z,23.60
2019-05-20T22:18:07.992Z,20.02
2019-05-20T22:20:36.232Z,26.48
2019-05-20T22:23:41.628Z,24.75
2019-05-20T22:26:09.985Z,20.40
2019-05-20T22:28:38.256Z,16.55
2019-05-20T22:31:06.460Z,16.00
2019-05-20T22:33:41.593Z,12.05
2019-05-20T22:36:04.700Z,16.95
2019-05-20T22:38:32.834Z,17.23
2019-05-20T22:41:01.000Z,16.30
2019-05-20T22:43:29.160Z,13.75
2019-05-20T22:45:57.395Z,16.30
2019-05-20T22:48:25.566Z,15.32
2019-05-20T22:50:53.788Z,15.60
2019-05-20T22:53:22.223Z,15.53
2019-05-20T22:55:50.534Z,13.62
2019-05-20T22:58:18.796Z,13.68
2019-05-20T23:00:47.051Z,14.95
2019-05-20T23:03:15.225Z,14.70
2019-05-20T23:05:43.428Z,12.98
2019-05-20T23:08:11.644Z,15.08
2019-05-20T23:10:39.886Z,16.37
2019-05-20T23:13:08.284Z,19.45
2019-05-20T23:15:36.511Z,12.50
2019-05-20T23:18:04.776Z,15.18
2019-05-20T23:20:32.947Z,13.60
2019-05-20T23:23:01.192Z,16.10
2019-05-20T23:25:29.373Z,15.20
2019-05-20T23:27:59.089Z,9.48
2019-05-20T23:30:27.300Z,13.78
2019-05-20T23:32:55.479Z,10.60
2019-05-20T23:35:23.871Z,12.78
2019-05-20T23:37:52.131Z,11.15
2019-05-20T23:40:20.281Z,8.65
2019-05-20T23:42:48.553Z,6.58
2019-05-20T23:45:16.806Z,6.83
2019-05-20T23:47:44.967Z,7.03
2019-05-20T23:50:13.479Z,8.83
2019-05-20T23:52:41.641Z,8.73
2019-05-20T23:55:10.208Z,8.63
2019-05-20T23:57:38.397Z,8.68
